Time;durP1;ratioP1;P1;durP2;ratioP2;P2;SDS_P1;SDS_P2;PMS_P1;PMS_P2;Temp;Humidity;BMP_temperature;BMP_pressure;BME280_temperature;BME280_humidity;BME280_pressure;Samples;Min_cycle;Max_cycle;Signal;HPM_P1;HPM_P2
2021/12/30 00:05:05;;;;;;;42.30;14.00;;;19.20;60.20;;;;;;10454972;27;20105;-56
2021/12/30 00:10:10;;;;;;;32.75;13.85;;;19.20;60.40;;;;;;10456479;28;20049;-57
2021/12/30 00:15:16;;;;;;;26.92;12.55;;;19.20;60.60;;;;;;10455135;28;20049;-56
2021/12/30 00:20:21;;;;;;;28.73;12.05;;;19.20;60.90;;;;;;10455836;28;20113;-57
2021/12/30 00:25:26;;;;;;;18.25;10.60;;;19.20;60.90;;;;;;10454820;28;20049;-57
2021/12/30 00:30:31;;;;;;;19.60;11.10;;;19.10;61.00;;;;;;10455000;28;20102;-57
2021/12/30 00:35:37;;;;;;;20.85;11.15;;;19.10;61.10;;;;;;10454307;28;20066;-57
2021/12/30 00:40:42;;;;;;;21.63;10.00;;;19.10;61.20;;;;;;10454484;28;20413;-57
2021/12/30 00:45:49;;;;;;;21.90;10.15;;;19.10;61.20;;;;;;10454814;28;20489;-57
2021/12/30 00:50:54;;;;;;;17.30;9.27;;;19.00;61.30;;;;;;10454324;28;20037;-57
2021/12/30 00:56:00;;;;;;;19.20;10.25;;;19.00;61.40;;;;;;10454801;28;20044;-57
2021/12/30 01:01:05;;;;;;;21.15;9.80;;;19.00;61.40;;;;;;10453754;28;20114;-57
2021/12/30 01:06:10;;;;;;;19.65;9.70;;;19.00;61.50;;;;;;10435865;28;20065;-57
2021/12/30 01:11:15;;;;;;;15.95;8.93;;;19.00;62.30;;;;;;10453345;28;20566;-57
2021/12/30 01:16:23;;;;;;;12.90;7.07;;;18.90;61.60;;;;;;10453309;28;20078;-56
2021/12/30 01:21:30;;;;;;;12.88;8.10;;;18.90;61.70;;;;;;10453959;28;20048;-57
2021/12/30 01:26:36;;;;;;;13.93;7.78;;;18.90;61.80;;;;;;10452934;28;20443;-57
2021/12/30 01:31:41;;;;;;;15.10;7.25;;;18.90;61.90;;;;;;10452509;28;20082;-57
2021/12/30 01:37:00;;;;;;;15.93;7.07;;;18.90;62.00;;;;;;10452912;28;20036;-57
2021/12/30 01:42:09;;;;;;;11.48;6.80;;;18.90;62.10;;;;;;10453200;27;20066;-57
2021/12/30 01:47:15;;;;;;;10.57;6.70;;;18.80;62.10;;;;;;10452001;28;20049;-57
2021/12/30 01:52:20;;;;;;;14.10;7.40;;;18.80;62.10;;;;;;10454365;28;20053;-57
2021/12/30 01:57:25;;;;;;;10.00;6.70;;;18.80;62.20;;;;;;10452253;28;20052;-57
2021/12/30 02:02:30;;;;;;;11.82;7.05;;;18.70;62.20;;;;;;10450849;27;20061;-57
2021/12/30 02:07:35;;;;;;;11.95;7.00;;;18.70;62.30;;;;;;10451477;28;20049;-57
2021/12/30 02:12:41;;;;;;;12.40;6.85;;;18.70;62.30;;;;;;10452323;28;20092;-57
2021/12/30 02:17:51;;;;;;;11.68;6.75;;;18.70;62.40;;;;;;10451129;28;20102;-57
2021/12/30 02:22:56;;;;;;;10.98;6.43;;;18.70;62.50;;;;;;10451879;28;20053;-57
2021/12/30 02:28:09;;;;;;;11.65;6.43;;;18.60;62.60;;;;;;10451485;28;20061;-57
2021/12/30 02:33:14;;;;;;;13.10;7.10;;;18.60;62.70;;;;;;10450652;28;20045;-57
2021/12/30 02:38:20;;;;;;;12.77;6.50;;;18.60;62.70;;;;;;10450627;28;20048;-57
2021/12/30 02:43:28;;;;;;;11.43;6.13;;;18.60;62.70;;;;;;10451093;28;20052;-57
2021/12/30 02:48:35;;;;;;;11.43;6.57;;;18.50;62.80;;;;;;10450857;28;20370;-57
2021/12/30 02:53:40;;;;;;;13.00;6.47;;;18.50;62.80;;;;;;10449751;28;20078;-57
2021/12/30 02:58:45;;;;;;;14.40;6.57;;;18.50;62.80;;;;;;10449221;28;20044;-57
2021/12/30 03:03:50;;;;;;;15.88;6.97;;;18.50;62.90;;;;;;10449257;27;20049;-56
2021/12/30 03:08:56;;;;;;;19.02;6.63;;;18.50;62.90;;;;;;10448726;28;20049;-56
2021/12/30 03:14:01;;;;;;;11.98;6.13;;;18.40;62.90;;;;;;10446919;28;20086;-57
2021/12/30 03:19:06;;;;;;;15.13;6.80;;;18.40;63.00;;;;;;10456563;28;20554;-57
2021/12/30 03:24:11;;;;;;;10.05;6.65;;;18.40;63.00;;;;;;10455888;28;20057;-58
2021/12/30 03:29:16;;;;;;;10.25;6.30;;;18.40;63.20;;;;;;10456390;28;20053;-57
2021/12/30 03:34:21;;;;;;;12.20;6.22;;;18.40;63.30;;;;;;10453769;28;20082;-57
2021/12/30 03:39:26;;;;;;;9.70;5.82;;;18.40;63.30;;;;;;10456432;27;20048;-57
2021/12/30 03:44:31;;;;;;;11.38;6.63;;;18.40;63.40;;;;;;10455055;28;20053;-58
2021/12/30 03:49:36;;;;;;;9.60;5.80;;;18.30;63.30;;;;;;10455731;28;20052;-57
2021/12/30 03:54:42;;;;;;;10.50;5.95;;;18.30;63.40;;;;;;10455547;28;20053;-57
2021/12/30 03:59:48;;;;;;;10.40;6.30;;;18.30;63.50;;;;;;10456753;28;20041;-57
2021/12/30 04:04:53;;;;;;;11.15;6.18;;;18.30;63.50;;;;;;10456648;27;20053;-57
2021/12/30 04:09:57;;;;;;;11.32;6.22;;;18.20;63.40;;;;;;10455897;28;20041;-57
2021/12/30 04:15:04;;;;;;;10.15;5.97;;;18.30;63.40;;;;;;10455623;28;20086;-57
2021/12/30 04:20:11;;;;;;;10.48;5.95;;;18.30;63.50;;;;;;10455425;28;20044;-57
2021/12/30 04:25:17;;;;;;;12.95;6.18;;;18.40;63.50;;;;;;10455168;28;20049;-57
2021/12/30 04:30:21;;;;;;;10.27;6.30;;;18.50;63.40;;;;;;10454652;28;20105;-57
2021/12/30 04:35:26;;;;;;;8.20;5.63;;;18.60;63.30;;;;;;10454974;28;20060;-57
2021/12/30 04:40:31;;;;;;;9.30;5.40;;;18.70;63.20;;;;;;10454827;28;20405;-57
2021/12/30 04:45:36;;;;;;;10.02;5.25;;;18.80;63.20;;;;;;10454317;28;20097;-57
2021/12/30 04:50:41;;;;;;;10.43;5.50;;;18.90;63.10;;;;;;10453968;28;20102;-57
2021/12/30 04:55:48;;;;;;;9.98;5.38;;;19.00;63.00;;;;;;10454354;28;20063;-57
2021/12/30 05:00:53;;;;;;;14.20;5.40;;;19.10;63.60;;;;;;10453905;28;20074;-57
2021/12/30 05:06:02;;;;;;;10.20;5.57;;;19.20;62.90;;;;;;10453273;27;20071;-58
2021/12/30 05:11:09;;;;;;;8.25;5.38;;;19.30;62.90;;;;;;10453395;28;20048;-57
2021/12/30 05:16:17;;;;;;;9.68;5.25;;;19.40;62.80;;;;;;10453521;28;20049;-57
2021/12/30 05:21:22;;;;;;;10.15;5.32;;;19.40;62.70;;;;;;10453445;28;20106;-58
2021/12/30 05:26:29;;;;;;;9.60;4.95;;;19.50;62.70;;;;;;10452897;28;20106;-57
2021/12/30 05:31:33;;;;;;;9.45;5.20;;;19.60;62.70;;;;;;10452796;28;20442;-57
2021/12/30 05:36:39;;;;;;;10.75;4.80;;;19.60;62.60;;;;;;10451627;28;20045;-58
2021/12/30 05:41:43;;;;;;;8.07;4.30;;;19.60;62.50;;;;;;10451960;28;20045;-57
2021/12/30 05:46:49;;;;;;;7.30;4.68;;;19.70;62.50;;;;;;10453461;28;20049;-58
2021/12/30 05:51:54;;;;;;;8.90;4.93;;;19.80;62.50;;;;;;10453014;28;20048;-57
2021/12/30 05:56:59;;;;;;;8.82;4.70;;;19.80;62.40;;;;;;10451922;28;20102;-57
2021/12/30 06:02:05;;;;;;;8.13;4.80;;;19.80;62.40;;;;;;10452893;27;20053;-56
2021/12/30 06:07:10;;;;;;;6.75;4.18;;;19.80;62.50;;;;;;10451598;28;20045;-57
2021/12/30 06:12:15;;;;;;;8.55;4.10;;;19.90;62.50;;;;;;10451810;28;20049;-57
2021/12/30 06:17:20;;;;;;;10.52;5.00;;;19.80;62.50;;;;;;10443272;28;20074;-56
2021/12/30 06:22:25;;;;;;;15.60;5.03;;;19.80;62.60;;;;;;10450762;28;20041;-56
2021/12/30 06:27:30;;;;;;;7.47;4.00;;;19.80;62.50;;;;;;10450830;28;20413;-57
2021/12/30 06:32:35;;;;;;;6.10;3.38;;;19.70;62.50;;;;;;10450879;28;20044;-58
2021/12/30 06:37:41;;;;;;;5.20;2.95;;;19.70;62.70;;;;;;10446319;28;20081;-58
2021/12/30 06:42:46;;;;;;;6.13;3.20;;;19.70;62.80;;;;;;10446403;28;20489;-58
2021/12/30 06:47:51;;;;;;;6.72;2.63;;;19.60;62.60;;;;;;10449075;28;20546;-57
2021/12/30 06:52:56;;;;;;;6.90;2.92;;;19.60;62.50;;;;;;10452138;28;20090;-58
2021/12/30 06:58:01;;;;;;;9.52;3.25;;;19.60;62.40;;;;;;10449937;28;20109;-58
2021/12/30 07:03:07;;;;;;;6.82;3.20;;;19.60;62.40;;;;;;10450117;27;20053;-57
2021/12/30 07:08:12;;;;;;;5.70;3.47;;;19.60;62.40;;;;;;10449755;28;20071;-58
2021/12/30 07:13:20;;;;;;;5.35;3.00;;;19.50;62.40;;;;;;10450230;28;20551;-58
2021/12/30 07:18:25;;;;;;;5.78;3.00;;;19.50;62.40;;;;;;10448959;28;20450;-58
2021/12/30 07:23:30;;;;;;;5.80;3.25;;;19.50;62.30;;;;;;10449789;28;20056;-58
2021/12/30 07:28:35;;;;;;;7.15;3.15;;;19.50;62.30;;;;;;10450355;28;20085;-58
2021/12/30 07:33:40;;;;;;;4.50;3.40;;;19.40;62.30;;;;;;10449137;28;20462;-58
2021/12/30 07:38:44;;;;;;;6.55;3.25;;;19.40;62.30;;;;;;10449967;28;20530;-58
2021/12/30 07:43:49;;;;;;;5.00;3.08;;;19.30;62.20;;;;;;10448927;28;20044;-58
2021/12/30 07:48:54;;;;;;;4.93;3.13;;;19.30;62.30;;;;;;10449205;28;20446;-57
2021/12/30 07:53:59;;;;;;;3.50;2.80;;;19.20;62.40;;;;;;10449152;28;20086;-58
2021/12/30 07:59:04;;;;;;;5.03;3.33;;;19.20;62.20;;;;;;10448349;28;20078;-58
2021/12/30 08:04:09;;;;;;;4.78;3.00;;;19.20;62.30;;;;;;10455064;27;20053;-58
2021/12/30 08:09:14;;;;;;;4.95;3.13;;;19.10;62.20;;;;;;10455229;28;20102;-58
2021/12/30 08:14:18;;;;;;;4.65;3.10;;;19.10;62.20;;;;;;10455589;28;20053;-58
2021/12/30 08:19:23;;;;;;;4.65;2.78;;;19.10;62.20;;;;;;10454825;28;20078;-58
2021/12/30 08:24:29;;;;;;;4.15;2.97;;;19.00;62.20;;;;;;10454686;28;20053;-58
2021/12/30 08:29:48;;;;;;;4.40;2.97;;;19.00;62.20;;;;;;10454746;28;20056;-58
2021/12/30 08:34:53;;;;;;;4.10;3.20;;;19.00;62.20;;;;;;10456045;28;20049;-58
2021/12/30 08:40:01;;;;;;;6.20;3.22;;;18.90;62.20;;;;;;10436528;28;20074;-58
2021/12/30 08:45:07;;;;;;;4.78;3.63;;;18.90;62.10;;;;;;10454981;28;20041;-58
2021/12/30 08:50:15;;;;;;;4.75;3.10;;;18.90;62.20;;;;;;10454654;28;20405;-58
2021/12/30 08:55:21;;;;;;;4.65;3.30;;;18.90;62.20;;;;;;10453749;28;20443;-58
2021/12/30 09:00:31;;;;;;;4.70;3.08;;;18.80;62.10;;;;;;10453794;28;20053;-58
2021/12/30 09:05:37;;;;;;;4.03;2.88;;;18.80;62.10;;;;;;10454239;27;20094;-58
2021/12/30 09:10:45;;;;;;;3.90;2.67;;;18.80;62.20;;;;;;10452852;28;20052;-58
2021/12/30 09:15:51;;;;;;;4.47;3.30;;;18.80;62.20;;;;;;10453932;28;20049;-58
2021/12/30 09:20:56;;;;;;;4.10;2.90;;;18.80;62.20;;;;;;10452674;28;20125;-58
2021/12/30 09:26:01;;;;;;;5.03;3.40;;;18.90;62.20;;;;;;10453819;28;20486;-58
2021/12/30 09:31:07;;;;;;;3.33;2.55;;;19.00;62.20;;;;;;10435606;28;20061;-58
2021/12/30 09:36:12;;;;;;;3.15;2.40;;;19.00;62.10;;;;;;10453083;28;20097;-58
2021/12/30 09:41:18;;;;;;;5.63;2.72;;;19.10;62.00;;;;;;10453106;28;20066;-58
2021/12/30 09:46:24;;;;;;;3.78;2.75;;;19.20;62.50;;;;;;10453062;28;20156;-57
2021/12/30 09:51:29;;;;;;;3.65;2.80;;;19.30;61.80;;;;;;10452168;28;20504;-58
2021/12/30 09:56:34;;;;;;;3.90;2.70;;;19.40;61.80;;;;;;10451854;28;20074;-58
2021/12/30 10:01:42;;;;;;;2.97;2.60;;;19.50;61.70;;;;;;10452604;28;20057;-57
2021/12/30 10:06:49;;;;;;;5.75;3.20;;;19.50;61.60;;;;;;10451512;27;20106;-58
2021/12/30 10:12:00;;;;;;;4.45;3.00;;;19.60;61.60;;;;;;10451460;28;20049;-58
2021/12/30 10:17:20;;;;;;;4.38;2.95;;;19.70;61.50;;;;;;10451815;28;20546;-58
2021/12/30 10:22:27;;;;;;;3.80;2.35;;;19.70;61.40;;;;;;10451283;28;20416;-58
2021/12/30 10:27:34;;;;;;;4.80;3.22;;;19.70;61.40;;;;;;10451355;28;20048;-58
2021/12/30 10:32:38;;;;;;;4.32;2.90;;;19.70;61.40;;;;;;10451072;28;20125;-58
2021/12/30 10:38:00;;;;;;;4.13;2.80;;;19.80;61.40;;;;;;10451059;28;20041;-58
2021/12/30 10:43:44;;;;;;;3.65;2.60;;;19.80;61.40;;;;;;10451840;28;20059;-58
2021/12/30 10:48:51;;;;;;;6.85;3.40;;;19.80;61.30;;;;;;10450667;28;20052;-58
2021/12/30 10:53:57;;;;;;;11.43;3.17;;;19.80;61.20;;;;;;10451095;28;20098;-58
2021/12/30 10:59:20;;;;;;;5.85;3.08;;;19.80;61.20;;;;;;10450044;28;20049;-58
2021/12/30 11:05:01;;;;;;;4.32;2.97;;;19.80;61.20;;;;;;10450154;27;20061;-57
2021/12/30 11:10:07;;;;;;;3.65;2.95;;;19.80;61.20;;;;;;10450265;28;20106;-57
2021/12/30 11:15:23;;;;;;;3.95;3.00;;;19.80;61.20;;;;;;10449945;28;20048;-57
2021/12/30 11:20:28;;;;;;;6.93;3.33;;;19.70;61.20;;;;;;10450407;28;20041;-57
2021/12/30 11:25:34;;;;;;;5.50;3.42;;;19.80;61.20;;;;;;10450279;28;20094;-57
2021/12/30 11:30:39;;;;;;;5.65;3.50;;;19.70;61.10;;;;;;10449040;28;20049;-57
2021/12/30 11:35:44;;;;;;;5.72;3.38;;;19.70;61.10;;;;;;10452184;28;20110;-57
2021/12/30 11:40:50;;;;;;;5.75;3.63;;;19.70;61.10;;;;;;10457224;28;20371;-57
2021/12/30 11:45:55;;;;;;;6.15;3.63;;;19.70;61.70;;;;;;10438716;28;20078;-57
2021/12/30 11:51:04;;;;;;;4.70;3.15;;;19.70;61.10;;;;;;10456005;28;20447;-57
2021/12/30 11:56:19;;;;;;;5.25;3.55;;;19.60;61.00;;;;;;10456255;28;20081;-57
2021/12/30 12:01:24;;;;;;;7.13;4.03;;;19.60;61.10;;;;;;10455560;28;20057;-57
2021/12/30 12:06:45;;;;;;;5.45;3.72;;;19.60;61.20;;;;;;10455922;27;20057;-57
2021/12/30 12:12:01;;;;;;;7.18;4.07;;;19.50;61.20;;;;;;10455878;28;20045;-57
2021/12/30 12:17:09;;;;;;;6.32;3.80;;;19.50;61.20;;;;;;10454935;28;20049;-57
2021/12/30 12:22:20;;;;;;;6.43;4.40;;;19.50;61.20;;;;;;10455929;28;20450;-57
2021/12/30 12:27:25;;;;;;;6.15;4.10;;;19.40;61.20;;;;;;10454928;28;20101;-57
2021/12/30 12:32:29;;;;;;;7.20;3.97;;;19.40;61.30;;;;;;10455156;28;20490;-57
2021/12/30 12:37:39;;;;;;;7.07;4.55;;;19.40;61.30;;;;;;10454390;28;20053;-57
2021/12/30 12:42:50;;;;;;;8.73;4.63;;;19.40;61.30;;;;;;10454422;28;20049;-57
2021/12/30 12:48:23;;;;;;;8.60;4.53;;;19.30;61.30;;;;;;10453511;28;20066;-57
2021/12/30 12:53:30;;;;;;;7.63;4.13;;;19.40;61.30;;;;;;10453918;28;20101;-57
2021/12/30 12:58:43;;;;;;;6.05;3.92;;;19.40;61.20;;;;;;10454531;28;20053;-57
2021/12/30 13:03:50;;;;;;;5.43;3.78;;;19.50;61.20;;;;;;10454016;27;20456;-57
2021/12/30 13:09:04;;;;;;;6.72;3.97;;;19.50;61.20;;;;;;10453330;28;20053;-57
2021/12/30 13:14:29;;;;;;;6.22;4.00;;;19.60;61.10;;;;;;10453889;28;20118;-57
2021/12/30 13:19:46;;;;;;;7.32;3.55;;;19.70;61.10;;;;;;10452984;28;20049;-57
2021/12/30 13:25:00;;;;;;;6.95;3.95;;;19.70;61.00;;;;;;10453732;28;20049;-57
2021/12/30 13:30:13;;;;;;;7.43;4.15;;;19.80;61.00;;;;;;10452883;28;20417;-57
2021/12/30 13:35:38;;;;;;;4.93;3.15;;;19.90;61.00;;;;;;10452500;28;20382;-57
2021/12/30 13:40:48;;;;;;;6.13;3.55;;;19.90;60.90;;;;;;10453066;28;20041;-57
2021/12/30 13:45:59;;;;;;;6.55;3.85;;;20.00;60.80;;;;;;10453741;28;20053;-57
2021/12/30 13:51:12;;;;;;;6.78;3.92;;;20.10;60.90;;;;;;10452470;28;20049;-57
2021/12/30 13:56:30;;;;;;;5.53;3.40;;;20.10;60.80;;;;;;10451883;28;20097;-57
2021/12/30 14:01:38;;;;;;;6.13;3.72;;;20.20;60.80;;;;;;10451471;28;20045;-58
2021/12/30 14:06:47;;;;;;;5.80;3.63;;;20.20;60.80;;;;;;10434968;28;20049;-58
2021/12/30 14:11:54;;;;;;;5.95;3.60;;;20.20;60.70;;;;;;10452090;28;20121;-58
2021/12/30 14:17:03;;;;;;;4.72;3.20;;;20.30;60.70;;;;;;10452147;28;20402;-58
2021/12/30 14:22:10;;;;;;;5.55;3.35;;;20.30;60.70;;;;;;10451731;28;20037;-58
2021/12/30 14:27:25;;;;;;;6.22;3.55;;;20.30;60.60;;;;;;10451124;28;20057;-58
2021/12/30 14:32:30;;;;;;;5.88;3.72;;;20.40;60.70;;;;;;10451378;28;20074;-58
2021/12/30 14:37:39;;;;;;;6.00;3.65;;;20.30;60.60;;;;;;10435140;28;20401;-57
2021/12/30 14:42:44;;;;;;;6.03;3.40;;;20.30;60.60;;;;;;10451440;28;20045;-57
2021/12/30 14:48:02;;;;;;;5.57;3.78;;;20.30;60.60;;;;;;10450370;28;20044;-57
2021/12/30 14:53:28;;;;;;;4.28;3.20;;;20.30;60.60;;;;;;10450269;28;20049;-57
2021/12/30 14:58:33;;;;;;;5.03;3.33;;;20.30;60.60;;;;;;10450007;28;20094;-58
2021/12/30 15:03:38;;;;;;;5.13;3.33;;;20.20;60.60;;;;;;10449730;27;20057;-57
2021/12/30 15:08:43;;;;;;;5.22;3.35;;;20.20;60.60;;;;;;10451210;28;20041;-57
2021/12/30 15:13:49;;;;;;;6.47;3.50;;;20.20;60.70;;;;;;10463316;28;20557;-57
2021/12/30 15:18:54;;;;;;;5.50;3.72;;;20.20;60.70;;;;;;10463800;28;20041;-57
2021/12/30 15:23:59;;;;;;;4.97;3.25;;;20.10;60.70;;;;;;10463300;28;20101;-57
2021/12/30 15:29:04;;;;;;;4.95;3.45;;;20.10;60.70;;;;;;10463322;28;20086;-57
2021/12/30 15:34:09;;;;;;;5.25;3.15;;;20.10;60.80;;;;;;10464222;28;20074;-57
2021/12/30 15:39:14;;;;;;;4.55;3.40;;;20.00;60.70;;;;;;10463231;28;20049;-57
2021/12/30 15:44:20;;;;;;;5.65;3.33;;;20.00;60.80;;;;;;10462564;28;20405;-57
2021/12/30 15:49:25;;;;;;;5.80;3.58;;;19.90;60.70;;;;;;10463443;28;20052;-57
2021/12/30 15:54:30;;;;;;;5.68;3.38;;;19.90;60.80;;;;;;10445914;28;20090;-57
2021/12/30 15:59:37;;;;;;;5.97;3.65;;;19.80;60.90;;;;;;10445928;28;20045;-57
2021/12/30 16:04:42;;;;;;;5.38;3.40;;;19.80;60.90;;;;;;10461857;27;20498;-57
2021/12/30 16:09:48;;;;;;;4.65;3.10;;;19.80;60.90;;;;;;10462731;28;20053;-57
2021/12/30 16:14:53;;;;;;;5.55;3.30;;;19.80;61.00;;;;;;10462946;28;20078;-57
2021/12/30 16:19:58;;;;;;;4.25;3.05;;;19.70;61.00;;;;;;10461872;28;20090;-57
2021/12/30 16:25:06;;;;;;;5.57;3.38;;;19.70;61.00;;;;;;10455092;28;20428;-57
2021/12/30 16:30:16;;;;;;;5.32;3.38;;;19.70;61.10;;;;;;10454674;28;20098;-57
2021/12/30 16:35:22;;;;;;;5.90;3.15;;;19.70;61.00;;;;;;10454644;28;20538;-57
2021/12/30 16:40:27;;;;;;;5.88;4.00;;;19.80;61.00;;;;;;10454905;28;20555;-58
2021/12/30 16:45:35;;;;;;;6.15;3.35;;;19.90;61.00;;;;;;10454338;28;20413;-57
2021/12/30 16:50:41;;;;;;;;;;;19.90;60.90;;;;;;10454547;28;20045;-58
2021/12/30 16:55:47;;;;;;;5.93;3.85;;;20.00;60.90;;;;;;10454017;28;20285;-57
2021/12/30 17:00:51;;;;;;;4.47;3.47;;;20.10;60.80;;;;;;10453545;28;20443;-57
2021/12/30 17:05:57;;;;;;;5.40;3.63;;;20.10;60.80;;;;;;10455517;27;20061;-57
2021/12/30 17:11:03;;;;;;;5.57;3.58;;;20.20;60.80;;;;;;10454479;28;20053;-57
2021/12/30 17:16:08;;;;;;;5.70;3.67;;;20.20;60.70;;;;;;10454285;28;20074;-58
2021/12/30 17:21:14;;;;;;;5.45;3.83;;;20.30;60.70;;;;;;10453356;28;20052;-57
2021/12/30 17:26:19;;;;;;;6.22;3.72;;;20.30;60.70;;;;;;10453172;28;20045;-57
2021/12/30 17:31:24;;;;;;;7.35;4.20;;;20.40;60.60;;;;;;10453280;28;20070;-57
2021/12/30 17:36:29;;;;;;;5.60;3.95;;;20.50;60.70;;;;;;10451681;28;20541;-57
2021/12/30 17:41:34;;;;;;;6.05;4.05;;;20.50;60.50;;;;;;10454144;28;20097;-57
2021/12/30 17:46:39;;;;;;;5.43;3.63;;;20.50;60.50;;;;;;10453453;28;20045;-57
2021/12/30 17:51:45;;;;;;;4.70;3.70;;;20.50;60.50;;;;;;10453323;28;20066;-58
2021/12/30 17:56:49;;;;;;;5.68;3.92;;;20.50;60.50;;;;;;10452414;28;20067;-57
2021/12/30 18:01:55;;;;;;;6.20;3.55;;;20.50;60.50;;;;;;10451679;28;20053;-57
2021/12/30 18:06:59;;;;;;;5.18;3.30;;;20.50;60.60;;;;;;10451509;28;20052;-58
2021/12/30 18:12:05;;;;;;;5.93;4.03;;;20.40;60.50;;;;;;10451486;28;20057;-57
2021/12/30 18:17:10;;;;;;;5.18;3.65;;;20.50;60.60;;;;;;10434447;28;20049;-57
2021/12/30 18:22:17;;;;;;;5.20;3.40;;;20.40;60.50;;;;;;10422669;28;20109;-56
2021/12/30 18:27:22;;;;;;;9.93;5.25;;;20.40;60.60;;;;;;10449636;28;20561;-57
2021/12/30 18:32:27;;;;;;;14.85;5.70;;;20.40;60.80;;;;;;10449422;28;20049;-57
2021/12/30 18:37:31;;;;;;;10.05;5.70;;;20.40;61.10;;;;;;10450181;28;20033;-57
2021/12/30 18:42:36;;;;;;;8.25;5.38;;;20.40;61.40;;;;;;10449971;28;20101;-57
2021/12/30 18:47:41;;;;;;;7.65;4.88;;;20.40;61.50;;;;;;10449458;28;20393;-57
2021/12/30 18:52:46;;;;;;;8.40;5.07;;;20.40;61.60;;;;;;10449927;28;20477;-57
2021/12/30 18:57:55;;;;;;;9.65;5.60;;;20.40;61.70;;;;;;10449100;28;20048;-57
2021/12/30 19:03:00;;;;;;;8.65;4.85;;;20.40;61.90;;;;;;10449182;28;20105;-57
2021/12/30 19:08:05;;;;;;;10.77;7.05;;;20.40;62.00;;;;;;10447660;28;20090;-57
2021/12/30 19:13:14;;;;;;;8.70;5.97;;;20.30;62.10;;;;;;10449569;28;20048;-57
2021/12/30 19:18:22;;;;;;;12.48;6.45;;;20.30;62.10;;;;;;10447502;28;20049;-57
2021/12/30 19:23:27;;;;;;;16.42;7.25;;;20.20;62.00;;;;;;10449677;28;20097;-57
2021/12/30 19:28:33;;;;;;;11.88;6.65;;;20.20;62.10;;;;;;10450235;28;20053;-57
2021/12/30 19:33:38;;;;;;;14.02;6.35;;;20.20;62.70;;;;;;10448848;28;20057;-56
2021/12/30 19:38:44;;;;;;;8.50;5.70;;;20.20;63.20;;;;;;10450074;28;20045;-56
2021/12/30 19:43:50;;;;;;;11.20;6.15;;;20.20;63.50;;;;;;10448878;28;20064;-57
2021/12/30 19:48:55;;;;;;;9.90;6.00;;;20.20;63.70;;;;;;10447865;28;20102;-56
2021/12/30 19:54:00;;;;;;;15.15;6.05;;;20.10;63.80;;;;;;10448067;28;20536;-56
2021/12/30 19:59:06;;;;;;;22.02;5.00;;;20.10;64.10;;;;;;10452772;28;20442;-57
2021/12/30 20:04:11;;;;;;;10.68;3.42;;;20.00;64.20;;;;;;10454861;27;20083;-57
2021/12/30 20:09:15;;;;;;;9.43;3.00;;;20.00;64.40;;;;;;10454595;28;20049;-56
2021/12/30 20:14:21;;;;;;;3.92;2.00;;;19.90;64.40;;;;;;10452116;28;20045;-56
2021/12/30 20:19:26;;;;;;;5.72;2.53;;;19.90;64.40;;;;;;10437805;28;20086;-56
2021/12/30 20:24:32;;;;;;;4.53;1.35;;;19.80;64.50;;;;;;10454762;28;20045;-57
2021/12/30 20:29:38;;;;;;;4.18;1.80;;;19.90;64.60;;;;;;10454691;28;20049;-56
2021/12/30 20:34:42;;;;;;;3.22;1.60;;;19.90;64.70;;;;;;10454786;28;20395;-55
2021/12/30 20:39:47;;;;;;;2.67;1.50;;;19.90;64.80;;;;;;10456748;28;20066;-57
2021/12/30 20:44:52;;;;;;;2.58;1.63;;;20.00;64.90;;;;;;10454965;28;20049;-57
2021/12/30 20:49:58;;;;;;;2.65;1.40;;;20.00;64.80;;;;;;10454320;28;20094;-57
2021/12/30 20:55:05;;;;;;;2.45;1.50;;;20.20;64.70;;;;;;10453797;28;20374;-57
2021/12/30 21:00:14;;;;;;;2.83;1.55;;;20.30;64.60;;;;;;10454428;28;20041;-57
2021/12/30 21:05:19;;;;;;;3.30;1.80;;;20.30;64.50;;;;;;10454656;27;20057;-57
2021/12/30 21:10:24;;;;;;;2.53;1.55;;;20.40;64.40;;;;;;10454174;28;20098;-57
2021/12/30 21:15:29;;;;;;;5.28;1.77;;;20.30;64.30;;;;;;10453361;28;20045;-56
2021/12/30 21:20:36;;;;;;;5.13;1.73;;;20.30;64.30;;;;;;10454094;28;20045;-57
2021/12/30 21:25:41;;;;;;;2.75;1.83;;;20.30;64.30;;;;;;10453028;28;20052;-57
2021/12/30 21:30:47;;;;;;;2.00;1.65;;;20.30;64.30;;;;;;10453719;28;20041;-56
2021/12/30 21:35:55;;;;;;;3.38;2.03;;;20.30;64.30;;;;;;10452634;28;20473;-57
2021/12/30 21:41:00;;;;;;;3.57;1.73;;;20.30;64.30;;;;;;10453133;28;20056;-56
2021/12/30 21:46:06;;;;;;;4.13;1.92;;;20.30;64.20;;;;;;10453928;28;20086;-56
2021/12/30 21:51:12;;;;;;;3.90;1.95;;;20.30;64.20;;;;;;10452207;28;20478;-57
2021/12/30 21:56:17;;;;;;;2.83;2.03;;;20.20;64.20;;;;;;10452224;28;20443;-56
2021/12/30 22:01:23;;;;;;;2.38;1.77;;;20.20;64.30;;;;;;10451901;28;20097;-57
2021/12/30 22:06:28;;;;;;;3.17;2.10;;;20.20;64.30;;;;;;10452273;28;20497;-57
2021/12/30 22:11:33;;;;;;;2.72;1.95;;;20.20;64.30;;;;;;10452574;28;20045;-57
2021/12/30 22:16:38;;;;;;;5.03;2.05;;;20.20;64.40;;;;;;10452704;28;20057;-57
2021/12/30 22:21:48;;;;;;;2.28;1.80;;;20.20;64.50;;;;;;10451327;28;20049;-57
2021/12/30 22:26:53;;;;;;;4.10;2.17;;;20.10;64.50;;;;;;10452033;28;20052;-57
2021/12/30 22:31:59;;;;;;;8.52;2.00;;;20.10;64.60;;;;;;10451951;28;20059;-56
2021/12/30 22:37:03;;;;;;;4.63;2.00;;;20.10;64.70;;;;;;10452840;28;20117;-56
2021/12/30 22:42:08;;;;;;;6.38;2.38;;;20.00;64.70;;;;;;10450874;28;20098;-55
2021/12/30 22:47:13;;;;;;;6.22;2.42;;;20.00;64.80;;;;;;10450557;28;20049;-55
2021/12/30 22:52:18;;;;;;;6.90;2.20;;;20.00;64.80;;;;;;10450342;28;20068;-55
2021/12/30 22:57:24;;;;;;;2.47;1.80;;;20.00;64.90;;;;;;10451156;28;20049;-55
2021/12/30 23:02:29;;;;;;;8.40;2.25;;;19.90;64.80;;;;;;10449909;27;20061;-56
2021/12/30 23:07:34;;;;;;;3.72;1.60;;;19.90;64.90;;;;;;10450624;28;20052;-55
2021/12/30 23:12:39;;;;;;;2.55;1.80;;;19.90;64.90;;;;;;10450382;28;20397;-57
2021/12/30 23:17:44;;;;;;;8.10;2.15;;;19.90;65.00;;;;;;10450601;28;20093;-56
2021/12/30 23:22:49;;;;;;;3.25;1.90;;;19.80;64.90;;;;;;10411006;28;20046;-56
2021/12/30 23:27:55;;;;;;;7.90;1.67;;;19.80;65.00;;;;;;10439914;28;20049;-56
2021/12/30 23:33:00;;;;;;;7.07;2.17;;;19.80;65.00;;;;;;10413291;28;20049;-57
2021/12/30 23:38:05;;;;;;;3.67;1.90;;;19.80;65.00;;;;;;10434497;28;20568;-56
2021/12/30 23:43:10;;;;;;;4.75;2.53;;;19.70;65.00;;;;;;10457079;28;20041;-57
2021/12/30 23:48:15;;;;;;;2.88;1.75;;;19.70;65.10;;;;;;10410646;28;20068;-56
2021/12/30 23:53:20;;;;;;;2.47;1.80;;;19.70;65.10;;;;;;10415411;28;20049;-56
2021/12/30 23:58:25;;;;;;;3.47;1.55;;;19.70;65.10;;;;;;10439293;28;20086;-57
